Rockledge, Florida
Current Conditions -  °F | °C
As of 4:58 AM on Thursday 29 Jan 2015 (Local Time) from KCOF Reporting Station
Few Clouds Few Clouds  
Wind Chill: 50°   Ceiling: Unl
Heat Index: 50°   Visibility: 10mi
Dew Point: 47°   Wind: 8mph
Humidity: 90%   Direction: 330°NNW
Pressure: 30.23"   Gusts: NA
Location:  28.33°N, 80.73°W
Report Text: KCOF 290958Z AUTO 33007KT 10SM FEW043 10/09 A3023 RMK AO2 SLP241 T01000085 CHINO RWY02 $
Loading
Personal Weather Stations






























Interactive Weather Map New forecast layout! Learn more

10-Day Weather Forecast

Advertisements
Track Severe Weather on mobile